sensor_id;sensor_type;location;lat;lon;timestamp;P1;durP1;ratioP1;P2;durP2;ratioP2
26435;SDS011;15351;52.408;16.826;2023-04-07T01:31:55;9.90;;;6.60;;
26435;SDS011;15351;52.408;16.826;2023-04-07T01:44:25;9.60;;;6.50;;
26435;SDS011;15351;52.408;16.826;2023-04-07T01:56:37;8.60;;;6.50;;
26435;SDS011;15351;52.408;16.826;2023-04-07T02:05:28;8.50;;;5.90;;
26435;SDS011;15351;52.408;16.826;2023-04-07T02:32:46;11.10;;;7.60;;
26435;SDS011;15351;52.408;16.826;2023-04-07T02:50:00;10.00;;;7.80;;
26435;SDS011;15351;52.408;16.826;2023-04-07T02:53:40;11.70;;;7.50;;
26435;SDS011;15351;52.408;16.826;2023-04-07T02:57:11;10.60;;;7.30;;
26435;SDS011;15351;52.408;16.826;2023-04-07T02:59:59;11.10;;;7.70;;
26435;SDS011;15351;52.408;16.826;2023-04-07T03:03:27;11.50;;;7.90;;
26435;SDS011;15351;52.408;16.826;2023-04-07T03:13:05;10.10;;;7.40;;
26435;SDS011;15351;52.408;16.826;2023-04-07T03:16:41;10.70;;;7.60;;
26435;SDS011;15351;52.408;16.826;2023-04-07T03:20:06;11.60;;;7.60;;
26435;SDS011;15351;52.408;16.826;2023-04-07T03:26:59;11.50;;;8.30;;
26435;SDS011;15351;52.408;16.826;2023-04-07T03:29:50;12.20;;;7.90;;
26435;SDS011;15351;52.408;16.826;2023-04-07T03:33:17;11.40;;;7.60;;
26435;SDS011;15351;52.408;16.826;2023-04-07T03:36:12;10.40;;;7.40;;
26435;SDS011;15351;52.408;16.826;2023-04-07T03:39:41;11.20;;;7.90;;
26435;SDS011;15351;52.408;16.826;2023-04-07T03:43:24;11.60;;;7.70;;
26435;SDS011;15351;52.408;16.826;2023-04-07T03:46:59;10.30;;;7.70;;
26435;SDS011;15351;52.408;16.826;2023-04-07T03:54:20;11.70;;;8.20;;
26435;SDS011;15351;52.408;16.826;2023-04-07T03:58:10;13.20;;;8.70;;
26435;SDS011;15351;52.408;16.826;2023-04-07T04:02:00;12.50;;;8.70;;
26435;SDS011;15351;52.408;16.826;2023-04-07T04:08:24;13.90;;;8.80;;
26435;SDS011;15351;52.408;16.826;2023-04-07T04:19:43;14.70;;;8.80;;
26435;SDS011;15351;52.408;16.826;2023-04-07T04:23:16;13.00;;;8.60;;
26435;SDS011;15351;52.408;16.826;2023-04-07T04:26:51;11.20;;;8.40;;
26435;SDS011;15351;52.408;16.826;2023-04-07T04:29:39;10.80;;;8.10;;
26435;SDS011;15351;52.408;16.826;2023-04-07T04:32:54;15.40;;;8.40;;
26435;SDS011;15351;52.408;16.826;2023-04-07T04:36:21;10.00;;;7.70;;
26435;SDS011;15351;52.408;16.826;2023-04-07T04:42:52;11.80;;;8.70;;
26435;SDS011;15351;52.408;16.826;2023-04-07T04:45:57;11.70;;;8.10;;
26435;SDS011;15351;52.408;16.826;2023-04-07T04:49:21;10.60;;;8.40;;
26435;SDS011;15351;52.408;16.826;2023-04-07T04:52:50;11.70;;;9.20;;
26435;SDS011;15351;52.408;16.826;2023-04-07T04:55:46;14.50;;;10.10;;
26435;SDS011;15351;52.408;16.826;2023-04-07T04:59:14;15.40;;;10.10;;
26435;SDS011;15351;52.408;16.826;2023-04-07T05:02:22;18.10;;;13.00;;
26435;SDS011;15351;52.408;16.826;2023-04-07T05:05:29;18.60;;;14.10;;
26435;SDS011;15351;52.408;16.826;2023-04-07T05:09:00;16.80;;;12.30;;
26435;SDS011;15351;52.408;16.826;2023-04-07T05:11:46;14.30;;;10.80;;
26435;SDS011;15351;52.408;16.826;2023-04-07T05:15:06;13.10;;;9.70;;
26435;SDS011;15351;52.408;16.826;2023-04-07T05:17:57;13.40;;;9.80;;
26435;SDS011;15351;52.408;16.826;2023-04-07T05:20:52;15.50;;;10.40;;
26435;SDS011;15351;52.408;16.826;2023-04-07T05:23:39;14.30;;;10.30;;
26435;SDS011;15351;52.408;16.826;2023-04-07T05:26:28;13.60;;;10.20;;
26435;SDS011;15351;52.408;16.826;2023-04-07T05:29:27;15.30;;;11.50;;
26435;SDS011;15351;52.408;16.826;2023-04-07T05:32:34;19.60;;;11.60;;
26435;SDS011;15351;52.408;16.826;2023-04-07T05:35:23;14.80;;;10.30;;
26435;SDS011;15351;52.408;16.826;2023-04-07T05:38:04;13.60;;;9.40;;
26435;SDS011;15351;52.408;16.826;2023-04-07T05:41:03;12.50;;;9.30;;
26435;SDS011;15351;52.408;16.826;2023-04-07T05:44:01;10.50;;;8.60;;
26435;SDS011;15351;52.408;16.826;2023-04-07T05:46:37;12.60;;;9.00;;
26435;SDS011;15351;52.408;16.826;2023-04-07T05:49:16;11.20;;;7.90;;
26435;SDS011;15351;52.408;16.826;2023-04-07T05:52:07;9.50;;;7.50;;
26435;SDS011;15351;52.408;16.826;2023-04-07T05:54:37;10.50;;;8.10;;
26435;SDS011;15351;52.408;16.826;2023-04-07T05:57:18;11.20;;;8.10;;
26435;SDS011;15351;52.408;16.826;2023-04-07T06:00:01;11.60;;;7.80;;
26435;SDS011;15351;52.408;16.826;2023-04-07T06:06:00;10.20;;;7.90;;
26435;SDS011;15351;52.408;16.826;2023-04-07T06:08:44;11.60;;;8.30;;
26435;SDS011;15351;52.408;16.826;2023-04-07T06:11:19;11.90;;;7.80;;
26435;SDS011;15351;52.408;16.826;2023-04-07T06:26:09;12.40;;;8.40;;
26435;SDS011;15351;52.408;16.826;2023-04-07T06:29:23;12.50;;;9.60;;
26435;SDS011;15351;52.408;16.826;2023-04-07T06:32:12;13.30;;;9.40;;
26435;SDS011;15351;52.408;16.826;2023-04-07T06:34:47;14.20;;;9.30;;
26435;SDS011;15351;52.408;16.826;2023-04-07T06:41:01;12.10;;;8.60;;
26435;SDS011;15351;52.408;16.826;2023-04-07T06:44:37;12.60;;;9.10;;
26435;SDS011;15351;52.408;16.826;2023-04-07T06:47:41;12.60;;;8.60;;
26435;SDS011;15351;52.408;16.826;2023-04-07T06:53:27;12.20;;;9.70;;
26435;SDS011;15351;52.408;16.826;2023-04-07T06:56:15;11.30;;;9.60;;
26435;SDS011;15351;52.408;16.826;2023-04-07T06:59:35;13.50;;;10.00;;
26435;SDS011;15351;52.408;16.826;2023-04-07T07:02:12;14.40;;;10.30;;
26435;SDS011;15351;52.408;16.826;2023-04-07T07:05:24;11.70;;;8.90;;
26435;SDS011;15351;52.408;16.826;2023-04-07T07:11:46;13.30;;;9.10;;
26435;SDS011;15351;52.408;16.826;2023-04-07T07:14:43;13.50;;;9.30;;
26435;SDS011;15351;52.408;16.826;2023-04-07T07:20:15;12.70;;;9.70;;
26435;SDS011;15351;52.408;16.826;2023-04-07T07:23:11;12.50;;;9.00;;
26435;SDS011;15351;52.408;16.826;2023-04-07T07:26:43;11.40;;;8.40;;
26435;SDS011;15351;52.408;16.826;2023-04-07T07:29:20;12.70;;;8.60;;
26435;SDS011;15351;52.408;16.826;2023-04-07T07:35:57;13.10;;;9.60;;
26435;SDS011;15351;52.408;16.826;2023-04-07T07:38:41;13.80;;;9.20;;
26435;SDS011;15351;52.408;16.826;2023-04-07T07:41:20;17.70;;;11.30;;
26435;SDS011;15351;52.408;16.826;2023-04-07T07:43:47;13.20;;;10.10;;
26435;SDS011;15351;52.408;16.826;2023-04-07T07:46:14;12.50;;;9.80;;
26435;SDS011;15351;52.408;16.826;2023-04-07T07:48:59;14.10;;;10.00;;
26435;SDS011;15351;52.408;16.826;2023-04-07T07:55:08;12.50;;;9.50;;
26435;SDS011;15351;52.408;16.826;2023-04-07T07:57:56;13.20;;;10.20;;
26435;SDS011;15351;52.408;16.826;2023-04-07T08:00:44;15.30;;;10.20;;
26435;SDS011;15351;52.408;16.826;2023-04-07T08:03:37;16.50;;;10.90;;
26435;SDS011;15351;52.408;16.826;2023-04-07T08:09:52;14.20;;;11.00;;
26435;SDS011;15351;52.408;16.826;2023-04-07T08:12:48;15.90;;;11.50;;
26435;SDS011;15351;52.408;16.826;2023-04-07T08:15:18;15.20;;;11.00;;
26435;SDS011;15351;52.408;16.826;2023-04-07T08:17:57;16.30;;;11.40;;
26435;SDS011;15351;52.408;16.826;2023-04-07T08:24:14;15.80;;;12.10;;
26435;SDS011;15351;52.408;16.826;2023-04-07T08:28:18;16.70;;;11.30;;
26435;SDS011;15351;52.408;16.826;2023-04-07T08:31:50;17.70;;;11.50;;
26435;SDS011;15351;52.408;16.826;2023-04-07T08:38:21;15.20;;;10.90;;
26435;SDS011;15351;52.408;16.826;2023-04-07T08:42:11;14.50;;;10.70;;
26435;SDS011;15351;52.408;16.826;2023-04-07T08:45:05;13.70;;;10.60;;
26435;SDS011;15351;52.408;16.826;2023-04-07T08:47:48;14.80;;;11.50;;
26435;SDS011;15351;52.408;16.826;2023-04-07T08:50:40;15.90;;;11.40;;
26435;SDS011;15351;52.408;16.826;2023-04-07T08:53:28;16.50;;;11.10;;
26435;SDS011;15351;52.408;16.826;2023-04-07T08:56:05;15.30;;;10.70;;
26435;SDS011;15351;52.408;16.826;2023-04-07T08:59:36;15.70;;;12.40;;
26435;SDS011;15351;52.408;16.826;2023-04-07T09:02:20;18.20;;;12.30;;
26435;SDS011;15351;52.408;16.826;2023-04-07T09:04:47;16.30;;;11.60;;
26435;SDS011;15351;52.408;16.826;2023-04-07T09:07:14;18.20;;;11.80;;
26435;SDS011;15351;52.408;16.826;2023-04-07T09:09:42;16.10;;;11.80;;
26435;SDS011;15351;52.408;16.826;2023-04-07T09:12:08;16.20;;;12.90;;
26435;SDS011;15351;52.408;16.826;2023-04-07T09:17:26;17.80;;;12.10;;
26435;SDS011;15351;52.408;16.826;2023-04-07T09:19:59;16.90;;;11.30;;
26435;SDS011;15351;52.408;16.826;2023-04-07T09:22:42;15.60;;;11.20;;
26435;SDS011;15351;52.408;16.826;2023-04-07T09:25:21;15.70;;;11.90;;
26435;SDS011;15351;52.408;16.826;2023-04-07T09:28:05;16.20;;;11.30;;
26435;SDS011;15351;52.408;16.826;2023-04-07T09:31:08;15.50;;;11.00;;
26435;SDS011;15351;52.408;16.826;2023-04-07T09:33:56;15.70;;;10.10;;
26435;SDS011;15351;52.408;16.826;2023-04-07T09:37:05;13.90;;;10.90;;
26435;SDS011;15351;52.408;16.826;2023-04-07T09:39:56;22.20;;;13.20;;
26435;SDS011;15351;52.408;16.826;2023-04-07T09:42:45;18.00;;;11.90;;
26435;SDS011;15351;52.408;16.826;2023-04-07T09:45:40;19.40;;;12.90;;
26435;SDS011;15351;52.408;16.826;2023-04-07T09:48:43;15.80;;;11.70;;
26435;SDS011;15351;52.408;16.826;2023-04-07T09:51:18;14.40;;;11.10;;
26435;SDS011;15351;52.408;16.826;2023-04-07T09:53:54;16.60;;;11.50;;
26435;SDS011;15351;52.408;16.826;2023-04-07T09:56:25;16.70;;;11.50;;
26435;SDS011;15351;52.408;16.826;2023-04-07T09:59:40;15.00;;;10.50;;
26435;SDS011;15351;52.408;16.826;2023-04-07T10:02:51;13.40;;;10.40;;
26435;SDS011;15351;52.408;16.826;2023-04-07T10:13:22;16.20;;;10.30;;
26435;SDS011;15351;52.408;16.826;2023-04-07T10:16:52;12.90;;;10.30;;
26435;SDS011;15351;52.408;16.826;2023-04-07T10:38:09;12.30;;;8.90;;
26435;SDS011;15351;52.408;16.826;2023-04-07T10:40:38;11.00;;;8.20;;
26435;SDS011;15351;52.408;16.826;2023-04-07T10:43:34;11.10;;;8.80;;
26435;SDS011;15351;52.408;16.826;2023-04-07T10:46:23;12.60;;;9.10;;
26435;SDS011;15351;52.408;16.826;2023-04-07T10:49:10;12.70;;;8.80;;
26435;SDS011;15351;52.408;16.826;2023-04-07T10:52:05;12.60;;;8.50;;
26435;SDS011;15351;52.408;16.826;2023-04-07T10:58:42;13.90;;;10.70;;
26435;SDS011;15351;52.408;16.826;2023-04-07T11:12:58;13.10;;;10.80;;
26435;SDS011;15351;52.408;16.826;2023-04-07T11:16:11;17.10;;;11.50;;
26435;SDS011;15351;52.408;16.826;2023-04-07T11:23:04;13.60;;;10.60;;
26435;SDS011;15351;52.408;16.826;2023-04-07T11:34:03;15.70;;;10.10;;
26435;SDS011;15351;52.408;16.826;2023-04-07T11:36:37;14.30;;;11.30;;
26435;SDS011;15351;52.408;16.826;2023-04-07T11:46:26;12.90;;;10.10;;
26435;SDS011;15351;52.408;16.826;2023-04-07T11:53:35;11.90;;;10.20;;
26435;SDS011;15351;52.408;16.826;2023-04-07T12:06:36;11.70;;;9.80;;
26435;SDS011;15351;52.408;16.826;2023-04-07T12:12:28;13.00;;;9.10;;
26435;SDS011;15351;52.408;16.826;2023-04-07T12:15:03;12.70;;;9.30;;
26435;SDS011;15351;52.408;16.826;2023-04-07T12:17:34;12.10;;;9.50;;
26435;SDS011;15351;52.408;16.826;2023-04-07T12:20:22;12.40;;;9.50;;
26435;SDS011;15351;52.408;16.826;2023-04-07T12:23:02;13.30;;;10.10;;
26435;SDS011;15351;52.408;16.826;2023-04-07T12:31:36;12.30;;;9.70;;
26435;SDS011;15351;52.408;16.826;2023-04-07T12:34:05;12.20;;;9.90;;
26435;SDS011;15351;52.408;16.826;2023-04-07T12:36:41;15.20;;;10.70;;
26435;SDS011;15351;52.408;16.826;2023-04-07T12:39:08;14.70;;;10.50;;
26435;SDS011;15351;52.408;16.826;2023-04-07T12:41:34;14.30;;;10.30;;
26435;SDS011;15351;52.408;16.826;2023-04-07T12:44:03;16.00;;;10.40;;
26435;SDS011;15351;52.408;16.826;2023-04-07T12:46:30;12.90;;;9.90;;
26435;SDS011;15351;52.408;16.826;2023-04-07T12:48:56;16.40;;;11.40;;
26435;SDS011;15351;52.408;16.826;2023-04-07T12:51:40;17.00;;;10.70;;
26435;SDS011;15351;52.408;16.826;2023-04-07T12:54:32;14.00;;;9.70;;
26435;SDS011;15351;52.408;16.826;2023-04-07T12:57:15;15.00;;;10.30;;
26435;SDS011;15351;52.408;16.826;2023-04-07T12:59:49;17.20;;;11.00;;
26435;SDS011;15351;52.408;16.826;2023-04-07T13:05:40;13.30;;;10.00;;
26435;SDS011;15351;52.408;16.826;2023-04-07T13:08:15;15.90;;;10.70;;
26435;SDS011;15351;52.408;16.826;2023-04-07T13:10:56;16.20;;;10.80;;
26435;SDS011;15351;52.408;16.826;2023-04-07T13:13:23;15.50;;;10.40;;
26435;SDS011;15351;52.408;16.826;2023-04-07T13:16:11;15.00;;;10.20;;
26435;SDS011;15351;52.408;16.826;2023-04-07T13:21:47;20.40;;;14.60;;
26435;SDS011;15351;52.408;16.826;2023-04-07T13:24:36;17.00;;;12.10;;
26435;SDS011;15351;52.408;16.826;2023-04-07T13:27:03;16.40;;;11.90;;
26435;SDS011;15351;52.408;16.826;2023-04-07T13:29:33;19.20;;;13.00;;
26435;SDS011;15351;52.408;16.826;2023-04-07T13:32:03;17.10;;;11.60;;
26435;SDS011;15351;52.408;16.826;2023-04-07T13:35:00;15.70;;;12.10;;
26435;SDS011;15351;52.408;16.826;2023-04-07T13:37:33;17.30;;;13.40;;
26435;SDS011;15351;52.408;16.826;2023-04-07T13:40:17;18.00;;;12.70;;
26435;SDS011;15351;52.408;16.826;2023-04-07T13:46:00;17.60;;;12.50;;
26435;SDS011;15351;52.408;16.826;2023-04-07T14:01:10;19.50;;;13.00;;
26435;SDS011;15351;52.408;16.826;2023-04-07T14:03:58;20.30;;;13.50;;
26435;SDS011;15351;52.408;16.826;2023-04-07T14:06:42;19.40;;;14.70;;
26435;SDS011;15351;52.408;16.826;2023-04-07T14:09:19;22.90;;;15.30;;
26435;SDS011;15351;52.408;16.826;2023-04-07T14:11:49;24.80;;;15.70;;
26435;SDS011;15351;52.408;16.826;2023-04-07T14:14:18;24.80;;;16.00;;
26435;SDS011;15351;52.408;16.826;2023-04-07T14:17:24;23.20;;;16.00;;
26435;SDS011;15351;52.408;16.826;2023-04-07T14:20:13;21.50;;;17.00;;
26435;SDS011;15351;52.408;16.826;2023-04-07T14:23:53;25.50;;;17.70;;
26435;SDS011;15351;52.408;16.826;2023-04-07T14:26:44;27.60;;;17.80;;
26435;SDS011;15351;52.408;16.826;2023-04-07T14:33:32;27.90;;;19.90;;
26435;SDS011;15351;52.408;16.826;2023-04-07T14:37:00;31.50;;;20.40;;
26435;SDS011;15351;52.408;16.826;2023-04-07T14:40:33;34.30;;;20.90;;
26435;SDS011;15351;52.408;16.826;2023-04-07T14:44:01;31.90;;;20.90;;
26435;SDS011;15351;52.408;16.826;2023-04-07T14:50:56;32.70;;;23.70;;
26435;SDS011;15351;52.408;16.826;2023-04-07T14:54:06;33.70;;;23.40;;
26435;SDS011;15351;52.408;16.826;2023-04-07T15:00:35;36.60;;;22.90;;
26435;SDS011;15351;52.408;16.826;2023-04-07T15:03:05;36.00;;;25.10;;
26435;SDS011;15351;52.408;16.826;2023-04-07T15:14:34;33.20;;;22.10;;
26435;SDS011;15351;52.408;16.826;2023-04-07T15:18:05;35.00;;;25.60;;
26435;SDS011;15351;52.408;16.826;2023-04-07T15:22:20;35.00;;;23.50;;
26435;SDS011;15351;52.408;16.826;2023-04-07T15:25:59;33.30;;;22.20;;
26435;SDS011;15351;52.408;16.826;2023-04-07T15:33:02;33.70;;;24.60;;
26435;SDS011;15351;52.408;16.826;2023-04-07T15:39:45;35.00;;;22.40;;
26435;SDS011;15351;52.408;16.826;2023-04-07T15:43:16;36.50;;;24.10;;
26435;SDS011;15351;52.408;16.826;2023-04-07T15:46:41;31.40;;;24.10;;
26435;SDS011;15351;52.408;16.826;2023-04-07T15:53:31;35.70;;;23.60;;
26435;SDS011;15351;52.408;16.826;2023-04-07T15:59:30;39.20;;;27.90;;
26435;SDS011;15351;52.408;16.826;2023-04-07T16:19:10;37.60;;;25.60;;
26435;SDS011;15351;52.408;16.826;2023-04-07T16:21:54;36.90;;;25.50;;
26435;SDS011;15351;52.408;16.826;2023-04-07T16:24:26;34.00;;;23.60;;
26435;SDS011;15351;52.408;16.826;2023-04-07T16:27:46;32.00;;;23.30;;
26435;SDS011;15351;52.408;16.826;2023-04-07T16:37:09;35.50;;;23.60;;
26435;SDS011;15351;52.408;16.826;2023-04-07T16:40:28;41.90;;;28.80;;
26435;SDS011;15351;52.408;16.826;2023-04-07T16:47:09;59.70;;;45.60;;
26435;SDS011;15351;52.408;16.826;2023-04-07T16:49:35;54.90;;;42.70;;
26435;SDS011;15351;52.408;16.826;2023-04-07T16:52:22;41.80;;;30.20;;
26435;SDS011;15351;52.408;16.826;2023-04-07T16:54:53;40.50;;;28.30;;
26435;SDS011;15351;52.408;16.826;2023-04-07T16:57:25;33.50;;;28.40;;
26435;SDS011;15351;52.408;16.826;2023-04-07T17:00:18;39.30;;;30.10;;
26435;SDS011;15351;52.408;16.826;2023-04-07T17:02:47;43.30;;;32.20;;
26435;SDS011;15351;52.408;16.826;2023-04-07T17:05:22;38.60;;;29.30;;
26435;SDS011;15351;52.408;16.826;2023-04-07T17:07:51;37.80;;;26.70;;
26435;SDS011;15351;52.408;16.826;2023-04-07T17:10:44;40.50;;;28.10;;
26435;SDS011;15351;52.408;16.826;2023-04-07T17:13:13;36.50;;;27.20;;
26435;SDS011;15351;52.408;16.826;2023-04-07T17:15:40;43.20;;;33.70;;
26435;SDS011;15351;52.408;16.826;2023-04-07T17:18:21;53.00;;;35.80;;
26435;SDS011;15351;52.408;16.826;2023-04-07T17:21:00;46.60;;;31.80;;
26435;SDS011;15351;52.408;16.826;2023-04-07T17:23:33;37.10;;;25.40;;
26435;SDS011;15351;52.408;16.826;2023-04-07T17:26:08;58.80;;;42.00;;
26435;SDS011;15351;52.408;16.826;2023-04-07T17:28:35;46.00;;;34.80;;
26435;SDS011;15351;52.408;16.826;2023-04-07T17:31:01;51.90;;;33.70;;
26435;SDS011;15351;52.408;16.826;2023-04-07T17:33:28;59.40;;;35.00;;
26435;SDS011;15351;52.408;16.826;2023-04-07T17:35:55;56.70;;;33.80;;
26435;SDS011;15351;52.408;16.826;2023-04-07T17:38:21;57.90;;;35.80;;
26435;SDS011;15351;52.408;16.826;2023-04-07T17:40:56;56.40;;;38.70;;
26435;SDS011;15351;52.408;16.826;2023-04-07T17:43:23;58.00;;;36.60;;
26435;SDS011;15351;52.408;16.826;2023-04-07T17:45:50;55.70;;;36.50;;
26435;SDS011;15351;52.408;16.826;2023-04-07T17:48:20;61.70;;;39.50;;
26435;SDS011;15351;52.408;16.826;2023-04-07T17:50:48;63.70;;;40.10;;
26435;SDS011;15351;52.408;16.826;2023-04-07T17:53:27;47.40;;;34.90;;
26435;SDS011;15351;52.408;16.826;2023-04-07T17:56:08;47.30;;;34.70;;
26435;SDS011;15351;52.408;16.826;2023-04-07T17:58:42;47.30;;;33.30;;
26435;SDS011;15351;52.408;16.826;2023-04-07T18:01:11;44.60;;;31.20;;
26435;SDS011;15351;52.408;16.826;2023-04-07T18:03:43;44.20;;;29.90;;
26435;SDS011;15351;52.408;16.826;2023-04-07T18:09:48;46.60;;;32.80;;
26435;SDS011;15351;52.408;16.826;2023-04-07T18:12:14;66.80;;;37.40;;
26435;SDS011;15351;52.408;16.826;2023-04-07T18:14:45;58.90;;;33.80;;
26435;SDS011;15351;52.408;16.826;2023-04-07T18:17:14;57.00;;;33.20;;
26435;SDS011;15351;52.408;16.826;2023-04-07T18:19:41;48.80;;;29.80;;
26435;SDS011;15351;52.408;16.826;2023-04-07T18:22:07;43.70;;;30.20;;
26435;SDS011;15351;52.408;16.826;2023-04-07T18:24:40;42.50;;;30.90;;
26435;SDS011;15351;52.408;16.826;2023-04-07T18:27:09;43.90;;;28.90;;
26435;SDS011;15351;52.408;16.826;2023-04-07T18:29:36;46.10;;;29.80;;
26435;SDS011;15351;52.408;16.826;2023-04-07T18:32:05;46.50;;;29.20;;
26435;SDS011;15351;52.408;16.826;2023-04-07T18:34:35;43.30;;;26.40;;
26435;SDS011;15351;52.408;16.826;2023-04-07T18:37:06;35.60;;;27.20;;
26435;SDS011;15351;52.408;16.826;2023-04-07T18:39:40;36.30;;;27.40;;
26435;SDS011;15351;52.408;16.826;2023-04-07T18:42:15;39.40;;;26.80;;
26435;SDS011;15351;52.408;16.826;2023-04-07T18:44:45;38.40;;;26.00;;
26435;SDS011;15351;52.408;16.826;2023-04-07T18:47:19;38.00;;;25.30;;
26435;SDS011;15351;52.408;16.826;2023-04-07T18:49:48;38.60;;;25.20;;
26435;SDS011;15351;52.408;16.826;2023-04-07T18:52:25;34.60;;;27.00;;
26435;SDS011;15351;52.408;16.826;2023-04-07T18:55:08;38.40;;;27.80;;
26435;SDS011;15351;52.408;16.826;2023-04-07T19:02:57;37.30;;;25.80;;
26435;SDS011;15351;52.408;16.826;2023-04-07T19:05:28;38.40;;;26.90;;
26435;SDS011;15351;52.408;16.826;2023-04-07T19:07:59;39.20;;;31.40;;
26435;SDS011;15351;52.408;16.826;2023-04-07T19:10:39;42.30;;;31.70;;
26435;SDS011;15351;52.408;16.826;2023-04-07T19:13:11;39.70;;;29.70;;
26435;SDS011;15351;52.408;16.826;2023-04-07T19:15:50;37.20;;;27.20;;
26435;SDS011;15351;52.408;16.826;2023-04-07T19:18:17;35.30;;;26.20;;
26435;SDS011;15351;52.408;16.826;2023-04-07T19:20:44;42.30;;;30.40;;
26435;SDS011;15351;52.408;16.826;2023-04-07T19:23:10;41.80;;;31.00;;
26435;SDS011;15351;52.408;16.826;2023-04-07T19:25:36;47.20;;;30.70;;
26435;SDS011;15351;52.408;16.826;2023-04-07T19:31:17;48.00;;;31.70;;
26435;SDS011;15351;52.408;16.826;2023-04-07T19:33:43;49.00;;;33.40;;
26435;SDS011;15351;52.408;16.826;2023-04-07T19:36:13;51.10;;;31.90;;
26435;SDS011;15351;52.408;16.826;2023-04-07T19:38:40;52.90;;;31.80;;
26435;SDS011;15351;52.408;16.826;2023-04-07T19:41:06;45.30;;;29.70;;
26435;SDS011;15351;52.408;16.826;2023-04-07T19:43:35;41.50;;;28.10;;
26435;SDS011;15351;52.408;16.826;2023-04-07T19:46:07;40.30;;;29.70;;
26435;SDS011;15351;52.408;16.826;2023-04-07T19:48:38;38.90;;;30.70;;
26435;SDS011;15351;52.408;16.826;2023-04-07T19:51:10;42.00;;;30.00;;
26435;SDS011;15351;52.408;16.826;2023-04-07T19:53:37;42.10;;;29.90;;
26435;SDS011;15351;52.408;16.826;2023-04-07T19:56:18;39.90;;;29.00;;
26435;SDS011;15351;52.408;16.826;2023-04-07T19:59:13;36.00;;;26.60;;
26435;SDS011;15351;52.408;16.826;2023-04-07T20:01:59;35.30;;;28.00;;
26435;SDS011;15351;52.408;16.826;2023-04-07T20:04:26;36.00;;;27.10;;
26435;SDS011;15351;52.408;16.826;2023-04-07T20:06:57;35.80;;;26.90;;
26435;SDS011;15351;52.408;16.826;2023-04-07T20:09:56;35.30;;;27.70;;
26435;SDS011;15351;52.408;16.826;2023-04-07T20:13:17;36.80;;;27.90;;
26435;SDS011;15351;52.408;16.826;2023-04-07T20:16:33;34.80;;;28.60;;
26435;SDS011;15351;52.408;16.826;2023-04-07T20:19:12;38.30;;;29.60;;
26435;SDS011;15351;52.408;16.826;2023-04-07T20:23:03;38.40;;;28.40;;
26435;SDS011;15351;52.408;16.826;2023-04-07T20:34:45;36.90;;;28.00;;
26435;SDS011;15351;52.408;16.826;2023-04-07T20:44:53;36.30;;;29.80;;
26435;SDS011;15351;52.408;16.826;2023-04-07T20:50:59;39.40;;;30.30;;
26435;SDS011;15351;52.408;16.826;2023-04-07T20:56:53;41.50;;;30.30;;
26435;SDS011;15351;52.408;16.826;2023-04-07T21:00:13;40.10;;;32.00;;
26435;SDS011;15351;52.408;16.826;2023-04-07T21:06:41;40.50;;;30.00;;
26435;SDS011;15351;52.408;16.826;2023-04-07T21:09:22;38.60;;;28.70;;
26435;SDS011;15351;52.408;16.826;2023-04-07T21:12:09;39.40;;;28.70;;
26435;SDS011;15351;52.408;16.826;2023-04-07T21:14:41;37.70;;;30.50;;
26435;SDS011;15351;52.408;16.826;2023-04-07T21:18:02;41.50;;;31.10;;
26435;SDS011;15351;52.408;16.826;2023-04-07T21:31:05;41.30;;;32.10;;
26435;SDS011;15351;52.408;16.826;2023-04-07T21:34:19;41.20;;;29.80;;
26435;SDS011;15351;52.408;16.826;2023-04-07T21:40:32;40.70;;;33.30;;
26435;SDS011;15351;52.408;16.826;2023-04-07T22:00:13;39.70;;;29.30;;
26435;SDS011;15351;52.408;16.826;2023-04-07T22:13:43;40.80;;;28.70;;
26435;SDS011;15351;52.408;16.826;2023-04-07T22:17:08;38.50;;;27.30;;
26435;SDS011;15351;52.408;16.826;2023-04-07T22:19:37;39.10;;;27.00;;
26435;SDS011;15351;52.408;16.826;2023-04-07T22:22:04;35.80;;;25.70;;
26435;SDS011;15351;52.408;16.826;2023-04-07T22:24:43;32.60;;;27.10;;
26435;SDS011;15351;52.408;16.826;2023-04-07T22:30:02;39.10;;;25.40;;
26435;SDS011;15351;52.408;16.826;2023-04-07T22:32:43;34.00;;;25.10;;
26435;SDS011;15351;52.408;16.826;2023-04-07T22:35:11;31.60;;;23.50;;
26435;SDS011;15351;52.408;16.826;2023-04-07T22:37:37;31.90;;;23.10;;
26435;SDS011;15351;52.408;16.826;2023-04-07T22:40:08;30.80;;;24.10;;
26435;SDS011;15351;52.408;16.826;2023-04-07T22:42:36;32.30;;;24.40;;
26435;SDS011;15351;52.408;16.826;2023-04-07T22:45:13;32.50;;;23.40;;
26435;SDS011;15351;52.408;16.826;2023-04-07T22:50:32;31.50;;;22.40;;
26435;SDS011;15351;52.408;16.826;2023-04-07T22:53:16;29.70;;;21.60;;
26435;SDS011;15351;52.408;16.826;2023-04-07T22:56:34;28.80;;;23.10;;
26435;SDS011;15351;52.408;16.826;2023-04-07T22:59:12;35.60;;;23.20;;
26435;SDS011;15351;52.408;16.826;2023-04-07T23:01:59;31.00;;;21.30;;
26435;SDS011;15351;52.408;16.826;2023-04-07T23:07:57;30.80;;;20.20;;
26435;SDS011;15351;52.408;16.826;2023-04-07T23:10:34;28.90;;;20.10;;
26435;SDS011;15351;52.408;16.826;2023-04-07T23:13:03;25.40;;;18.70;;
26435;SDS011;15351;52.408;16.826;2023-04-07T23:15:32;25.40;;;19.40;;
26435;SDS011;15351;52.408;16.826;2023-04-07T23:18:00;27.30;;;18.60;;
26435;SDS011;15351;52.408;16.826;2023-04-07T23:20:30;26.10;;;19.40;;
26435;SDS011;15351;52.408;16.826;2023-04-07T23:23:06;23.30;;;17.50;;
26435;SDS011;15351;52.408;16.826;2023-04-07T23:28:57;23.40;;;17.90;;
26435;SDS011;15351;52.408;16.826;2023-04-07T23:31:26;21.80;;;17.20;;
26435;SDS011;15351;52.408;16.826;2023-04-07T23:33:58;21.00;;;15.90;;
26435;SDS011;15351;52.408;16.826;2023-04-07T23:36:28;21.30;;;15.80;;
26435;SDS011;15351;52.408;16.826;2023-04-07T23:38:57;23.10;;;14.90;;
26435;SDS011;15351;52.408;16.826;2023-04-07T23:41:24;23.00;;;14.90;;
26435;SDS011;15351;52.408;16.826;2023-04-07T23:44:04;17.80;;;14.00;;
26435;SDS011;15351;52.408;16.826;2023-04-07T23:46:50;19.50;;;14.50;;
26435;SDS011;15351;52.408;16.826;2023-04-07T23:49:23;19.10;;;13.50;;
26435;SDS011;15351;52.408;16.826;2023-04-07T23:52:26;18.20;;;13.00;;
26435;SDS011;15351;52.408;16.826;2023-04-07T23:55:01;17.50;;;12.80;;
